sensor_id;sensor_type;location;lat;lon;timestamp;P1;durP1;ratioP1;P2;durP2;ratioP2
28551;SDS011;15752;49.560;8.708;2023-01-15T00:02:08;1.27;;;0.43;;
28551;SDS011;15752;49.560;8.708;2023-01-15T00:04:39;0.67;;;0.50;;
28551;SDS011;15752;49.560;8.708;2023-01-15T00:07:08;0.30;;;0.30;;
28551;SDS011;15752;49.560;8.708;2023-01-15T00:09:36;1.70;;;0.40;;
28551;SDS011;15752;49.560;8.708;2023-01-15T00:12:04;1.40;;;0.53;;
28551;SDS011;15752;49.560;8.708;2023-01-15T00:14:33;0.50;;;0.50;;
28551;SDS011;15752;49.560;8.708;2023-01-15T00:17:01;0.30;;;0.30;;
28551;SDS011;15752;49.560;8.708;2023-01-15T00:19:30;0.80;;;0.43;;
28551;SDS011;15752;49.560;8.708;2023-01-15T00:21:59;0.50;;;0.20;;
28551;SDS011;15752;49.560;8.708;2023-01-15T00:24:28;0.30;;;0.30;;
28551;SDS011;15752;49.560;8.708;2023-01-15T00:27:13;1.80;;;0.50;;
28551;SDS011;15752;49.560;8.708;2023-01-15T00:29:59;0.67;;;0.40;;
28551;SDS011;15752;49.560;8.708;2023-01-15T00:32:28;0.33;;;0.33;;
28551;SDS011;15752;49.560;8.708;2023-01-15T00:34:56;0.30;;;0.30;;
28551;SDS011;15752;49.560;8.708;2023-01-15T00:37:27;0.50;;;0.33;;
28551;SDS011;15752;49.560;8.708;2023-01-15T00:39:56;0.40;;;0.40;;
28551;SDS011;15752;49.560;8.708;2023-01-15T00:42:24;0.90;;;0.30;;
28551;SDS011;15752;49.560;8.708;2023-01-15T00:44:53;0.33;;;0.33;;
28551;SDS011;15752;49.560;8.708;2023-01-15T00:47:21;0.73;;;0.40;;
28551;SDS011;15752;49.560;8.708;2023-01-15T00:49:50;1.30;;;0.50;;
28551;SDS011;15752;49.560;8.708;2023-01-15T00:52:18;1.03;;;0.50;;
28551;SDS011;15752;49.560;8.708;2023-01-15T00:54:48;0.33;;;0.30;;
28551;SDS011;15752;49.560;8.708;2023-01-15T00:57:16;1.37;;;0.67;;
28551;SDS011;15752;49.560;8.708;2023-01-15T00:59:45;0.37;;;0.37;;
28551;SDS011;15752;49.560;8.708;2023-01-15T01:02:13;0.60;;;0.40;;
28551;SDS011;15752;49.560;8.708;2023-01-15T01:04:42;0.50;;;0.30;;
28551;SDS011;15752;49.560;8.708;2023-01-15T01:07:11;0.30;;;0.30;;
28551;SDS011;15752;49.560;8.708;2023-01-15T01:09:40;0.37;;;0.27;;
28551;SDS011;15752;49.560;8.708;2023-01-15T01:12:10;0.33;;;0.30;;
28551;SDS011;15752;49.560;8.708;2023-01-15T01:14:38;0.83;;;0.40;;
28551;SDS011;15752;49.560;8.708;2023-01-15T01:17:07;0.53;;;0.33;;
28551;SDS011;15752;49.560;8.708;2023-01-15T01:19:35;0.33;;;0.23;;
28551;SDS011;15752;49.560;8.708;2023-01-15T01:22:06;0.43;;;0.30;;
28551;SDS011;15752;49.560;8.708;2023-01-15T01:24:34;0.40;;;0.30;;
28551;SDS011;15752;49.560;8.708;2023-01-15T01:27:05;0.40;;;0.30;;
28551;SDS011;15752;49.560;8.708;2023-01-15T01:29:35;2.03;;;0.50;;
28551;SDS011;15752;49.560;8.708;2023-01-15T01:32:03;0.30;;;0.30;;
28551;SDS011;15752;49.560;8.708;2023-01-15T01:34:33;0.30;;;0.20;;
28551;SDS011;15752;49.560;8.708;2023-01-15T01:37:01;0.77;;;0.50;;
28551;SDS011;15752;49.560;8.708;2023-01-15T01:39:31;0.20;;;0.20;;
28551;SDS011;15752;49.560;8.708;2023-01-15T01:41:59;1.33;;;0.30;;
28551;SDS011;15752;49.560;8.708;2023-01-15T01:47:30;0.40;;;0.30;;
28551;SDS011;15752;49.560;8.708;2023-01-15T01:50:01;0.20;;;0.20;;
28551;SDS011;15752;49.560;8.708;2023-01-15T01:52:36;0.30;;;0.30;;
28551;SDS011;15752;49.560;8.708;2023-01-15T01:55:11;0.30;;;0.30;;
28551;SDS011;15752;49.560;8.708;2023-01-15T01:57:45;0.30;;;0.30;;
28551;SDS011;15752;49.560;8.708;2023-01-15T02:00:17;0.30;;;0.30;;
28551;SDS011;15752;49.560;8.708;2023-01-15T02:02:47;0.43;;;0.40;;
28551;SDS011;15752;49.560;8.708;2023-01-15T02:05:20;0.30;;;0.30;;
28551;SDS011;15752;49.560;8.708;2023-01-15T02:07:56;0.40;;;0.37;;
28551;SDS011;15752;49.560;8.708;2023-01-15T02:10:26;0.37;;;0.37;;
28551;SDS011;15752;49.560;8.708;2023-01-15T02:12:58;0.83;;;0.40;;
28551;SDS011;15752;49.560;8.708;2023-01-15T02:15:34;1.40;;;0.60;;
28551;SDS011;15752;49.560;8.708;2023-01-15T02:18:08;0.50;;;0.33;;
28551;SDS011;15752;49.560;8.708;2023-01-15T02:20:45;0.67;;;0.30;;
28551;SDS011;15752;49.560;8.708;2023-01-15T02:29:39;1.10;;;0.30;;
28551;SDS011;15752;49.560;8.708;2023-01-15T02:32:19;0.57;;;0.20;;
28551;SDS011;15752;49.560;8.708;2023-01-15T02:35:00;0.40;;;0.30;;
28551;SDS011;15752;49.560;8.708;2023-01-15T02:37:33;0.13;;;0.13;;
28551;SDS011;15752;49.560;8.708;2023-01-15T02:40:08;0.30;;;0.30;;
28551;SDS011;15752;49.560;8.708;2023-01-15T02:42:41;0.17;;;0.17;;
28551;SDS011;15752;49.560;8.708;2023-01-15T02:45:11;0.50;;;0.27;;
28551;SDS011;15752;49.560;8.708;2023-01-15T02:47:43;0.70;;;0.40;;
28551;SDS011;15752;49.560;8.708;2023-01-15T02:50:15;0.30;;;0.30;;
28551;SDS011;15752;49.560;8.708;2023-01-15T02:52:48;0.23;;;0.20;;
28551;SDS011;15752;49.560;8.708;2023-01-15T02:55:26;0.47;;;0.20;;
28551;SDS011;15752;49.560;8.708;2023-01-15T02:57:59;1.17;;;0.43;;
28551;SDS011;15752;49.560;8.708;2023-01-15T03:00:33;0.53;;;0.30;;
28551;SDS011;15752;49.560;8.708;2023-01-15T03:03:06;0.20;;;0.20;;
28551;SDS011;15752;49.560;8.708;2023-01-15T03:05:42;0.30;;;0.27;;
28551;SDS011;15752;49.560;8.708;2023-01-15T03:08:16;0.30;;;0.30;;
28551;SDS011;15752;49.560;8.708;2023-01-15T03:10:46;0.40;;;0.30;;
28551;SDS011;15752;49.560;8.708;2023-01-15T03:13:30;0.97;;;0.20;;
28551;SDS011;15752;49.560;8.708;2023-01-15T03:16:12;0.40;;;0.10;;
28551;SDS011;15752;49.560;8.708;2023-01-15T03:19:05;0.40;;;0.20;;
28551;SDS011;15752;49.560;8.708;2023-01-15T03:21:44;0.50;;;0.20;;
28551;SDS011;15752;49.560;8.708;2023-01-15T03:24:20;0.30;;;0.30;;
28551;SDS011;15752;49.560;8.708;2023-01-15T03:26:57;0.10;;;0.10;;
28551;SDS011;15752;49.560;8.708;2023-01-15T03:29:28;1.57;;;0.27;;
28551;SDS011;15752;49.560;8.708;2023-01-15T03:32:00;0.33;;;0.27;;
28551;SDS011;15752;49.560;8.708;2023-01-15T03:34:30;0.40;;;0.23;;
28551;SDS011;15752;49.560;8.708;2023-01-15T03:37:05;0.30;;;0.30;;
28551;SDS011;15752;49.560;8.708;2023-01-15T03:39:33;0.23;;;0.23;;
28551;SDS011;15752;49.560;8.708;2023-01-15T03:42:14;0.80;;;0.30;;
28551;SDS011;15752;49.560;8.708;2023-01-15T03:45:05;0.20;;;0.20;;
28551;SDS011;15752;49.560;8.708;2023-01-15T03:47:41;1.00;;;0.23;;
28551;SDS011;15752;49.560;8.708;2023-01-15T03:50:25;0.23;;;0.20;;
28551;SDS011;15752;49.560;8.708;2023-01-15T03:53:02;0.23;;;0.23;;
28551;SDS011;15752;49.560;8.708;2023-01-15T03:55:45;0.27;;;0.20;;
28551;SDS011;15752;49.560;8.708;2023-01-15T03:58:22;0.80;;;0.50;;
28551;SDS011;15752;49.560;8.708;2023-01-15T04:00:57;0.20;;;0.20;;
28551;SDS011;15752;49.560;8.708;2023-01-15T04:03:30;0.40;;;0.20;;
28551;SDS011;15752;49.560;8.708;2023-01-15T04:06:03;0.40;;;0.40;;
28551;SDS011;15752;49.560;8.708;2023-01-15T04:08:34;0.30;;;0.30;;
28551;SDS011;15752;49.560;8.708;2023-01-15T04:11:06;0.30;;;0.30;;
28551;SDS011;15752;49.560;8.708;2023-01-15T04:13:41;0.10;;;0.10;;
28551;SDS011;15752;49.560;8.708;2023-01-15T04:16:25;1.60;;;0.30;;
28551;SDS011;15752;49.560;8.708;2023-01-15T04:18:56;0.20;;;0.20;;
28551;SDS011;15752;49.560;8.708;2023-01-15T04:21:25;0.20;;;0.20;;
28551;SDS011;15752;49.560;8.708;2023-01-15T04:23:54;0.50;;;0.20;;
28551;SDS011;15752;49.560;8.708;2023-01-15T04:26:22;0.40;;;0.20;;
28551;SDS011;15752;49.560;8.708;2023-01-15T04:28:51;0.20;;;0.20;;
28551;SDS011;15752;49.560;8.708;2023-01-15T04:31:19;0.63;;;0.20;;
28551;SDS011;15752;49.560;8.708;2023-01-15T04:33:49;0.10;;;0.10;;
28551;SDS011;15752;49.560;8.708;2023-01-15T04:36:17;0.20;;;0.20;;
28551;SDS011;15752;49.560;8.708;2023-01-15T04:38:46;0.60;;;0.20;;
28551;SDS011;15752;49.560;8.708;2023-01-15T04:41:14;0.50;;;0.30;;
28551;SDS011;15752;49.560;8.708;2023-01-15T04:44:00;0.27;;;0.27;;
28551;SDS011;15752;49.560;8.708;2023-01-15T04:46:35;0.30;;;0.20;;
28551;SDS011;15752;49.560;8.708;2023-01-15T04:49:07;0.40;;;0.13;;
28551;SDS011;15752;49.560;8.708;2023-01-15T04:51:38;0.57;;;0.40;;
28551;SDS011;15752;49.560;8.708;2023-01-15T04:54:07;0.17;;;0.17;;
28551;SDS011;15752;49.560;8.708;2023-01-15T04:56:38;0.10;;;0.10;;
28551;SDS011;15752;49.560;8.708;2023-01-15T04:59:09;0.20;;;0.20;;
28551;SDS011;15752;49.560;8.708;2023-01-15T05:01:38;0.20;;;0.20;;
28551;SDS011;15752;49.560;8.708;2023-01-15T05:04:21;0.83;;;0.30;;
28551;SDS011;15752;49.560;8.708;2023-01-15T05:06:49;0.50;;;0.30;;
28551;SDS011;15752;49.560;8.708;2023-01-15T05:09:18;0.30;;;0.30;;
28551;SDS011;15752;49.560;8.708;2023-01-15T05:11:47;0.50;;;0.37;;
28551;SDS011;15752;49.560;8.708;2023-01-15T05:14:15;0.57;;;0.30;;
28551;SDS011;15752;49.560;8.708;2023-01-15T05:16:43;0.20;;;0.20;;
28551;SDS011;15752;49.560;8.708;2023-01-15T05:19:13;0.33;;;0.20;;
28551;SDS011;15752;49.560;8.708;2023-01-15T05:21:43;0.30;;;0.30;;
28551;SDS011;15752;49.560;8.708;2023-01-15T05:24:12;1.20;;;1.10;;
28551;SDS011;15752;49.560;8.708;2023-01-15T05:26:42;0.40;;;0.40;;
28551;SDS011;15752;49.560;8.708;2023-01-15T05:29:12;0.43;;;0.43;;
28551;SDS011;15752;49.560;8.708;2023-01-15T05:31:41;0.77;;;0.40;;
28551;SDS011;15752;49.560;8.708;2023-01-15T05:34:10;0.47;;;0.47;;
28551;SDS011;15752;49.560;8.708;2023-01-15T05:36:39;0.30;;;0.30;;
28551;SDS011;15752;49.560;8.708;2023-01-15T05:39:09;0.60;;;0.40;;
28551;SDS011;15752;49.560;8.708;2023-01-15T05:41:38;2.00;;;0.40;;
28551;SDS011;15752;49.560;8.708;2023-01-15T05:44:16;0.30;;;0.30;;
28551;SDS011;15752;49.560;8.708;2023-01-15T05:46:48;0.70;;;0.60;;
28551;SDS011;15752;49.560;8.708;2023-01-15T05:49:18;0.30;;;0.30;;
28551;SDS011;15752;49.560;8.708;2023-01-15T05:51:48;0.30;;;0.30;;
28551;SDS011;15752;49.560;8.708;2023-01-15T05:54:19;0.30;;;0.30;;
28551;SDS011;15752;49.560;8.708;2023-01-15T05:56:50;0.63;;;0.63;;
28551;SDS011;15752;49.560;8.708;2023-01-15T05:59:20;2.70;;;1.03;;
28551;SDS011;15752;49.560;8.708;2023-01-15T06:01:50;2.07;;;1.97;;
28551;SDS011;15752;49.560;8.708;2023-01-15T06:04:19;1.03;;;1.00;;
28551;SDS011;15752;49.560;8.708;2023-01-15T06:06:48;1.93;;;1.60;;
28551;SDS011;15752;49.560;8.708;2023-01-15T06:09:19;5.93;;;3.57;;
28551;SDS011;15752;49.560;8.708;2023-01-15T06:11:49;3.53;;;2.37;;
28551;SDS011;15752;49.560;8.708;2023-01-15T06:14:19;1.20;;;1.10;;
28551;SDS011;15752;49.560;8.708;2023-01-15T06:16:47;1.50;;;1.03;;
28551;SDS011;15752;49.560;8.708;2023-01-15T06:19:16;1.00;;;0.80;;
28551;SDS011;15752;49.560;8.708;2023-01-15T06:21:44;4.37;;;3.83;;
28551;SDS011;15752;49.560;8.708;2023-01-15T06:24:14;4.83;;;4.33;;
28551;SDS011;15752;49.560;8.708;2023-01-15T06:26:44;3.73;;;3.43;;
28551;SDS011;15752;49.560;8.708;2023-01-15T06:29:13;6.30;;;5.43;;
28551;SDS011;15752;49.560;8.708;2023-01-15T06:31:44;11.40;;;9.93;;
28551;SDS011;15752;49.560;8.708;2023-01-15T06:34:14;8.03;;;6.57;;
28551;SDS011;15752;49.560;8.708;2023-01-15T06:36:43;5.70;;;5.07;;
28551;SDS011;15752;49.560;8.708;2023-01-15T06:39:11;6.00;;;4.83;;
28551;SDS011;15752;49.560;8.708;2023-01-15T06:41:40;10.27;;;6.70;;
28551;SDS011;15752;49.560;8.708;2023-01-15T06:44:27;8.60;;;5.50;;
28551;SDS011;15752;49.560;8.708;2023-01-15T06:47:13;7.73;;;5.53;;
28551;SDS011;15752;49.560;8.708;2023-01-15T06:49:47;7.73;;;5.73;;
28551;SDS011;15752;49.560;8.708;2023-01-15T06:52:17;5.30;;;4.50;;
28551;SDS011;15752;49.560;8.708;2023-01-15T06:54:46;5.93;;;4.83;;
28551;SDS011;15752;49.560;8.708;2023-01-15T06:57:14;8.03;;;6.23;;
28551;SDS011;15752;49.560;8.708;2023-01-15T06:59:45;12.67;;;8.37;;
28551;SDS011;15752;49.560;8.708;2023-01-15T07:02:14;15.77;;;11.53;;
28551;SDS011;15752;49.560;8.708;2023-01-15T07:04:44;7.83;;;6.60;;
28551;SDS011;15752;49.560;8.708;2023-01-15T07:07:13;12.83;;;8.20;;
28551;SDS011;15752;49.560;8.708;2023-01-15T07:09:41;17.77;;;11.83;;
28551;SDS011;15752;49.560;8.708;2023-01-15T07:12:10;13.67;;;8.60;;
28551;SDS011;15752;49.560;8.708;2023-01-15T07:14:38;17.47;;;10.30;;
28551;SDS011;15752;49.560;8.708;2023-01-15T07:17:08;9.40;;;6.57;;
28551;SDS011;15752;49.560;8.708;2023-01-15T07:19:37;4.40;;;3.43;;
28551;SDS011;15752;49.560;8.708;2023-01-15T07:22:05;23.33;;;10.23;;
28551;SDS011;15752;49.560;8.708;2023-01-15T07:24:35;21.23;;;9.33;;
28551;SDS011;15752;49.560;8.708;2023-01-15T07:27:04;16.10;;;9.03;;
28551;SDS011;15752;49.560;8.708;2023-01-15T07:29:33;16.07;;;10.00;;
28551;SDS011;15752;49.560;8.708;2023-01-15T07:32:01;12.93;;;8.47;;
28551;SDS011;15752;49.560;8.708;2023-01-15T07:34:31;20.97;;;14.50;;
28551;SDS011;15752;49.560;8.708;2023-01-15T07:36:59;20.30;;;12.10;;
28551;SDS011;15752;49.560;8.708;2023-01-15T07:39:28;18.07;;;11.33;;
28551;SDS011;15752;49.560;8.708;2023-01-15T07:41:57;12.13;;;8.13;;
28551;SDS011;15752;49.560;8.708;2023-01-15T07:44:43;13.87;;;7.47;;
28551;SDS011;15752;49.560;8.708;2023-01-15T07:47:29;10.27;;;6.93;;
28551;SDS011;15752;49.560;8.708;2023-01-15T07:50:17;8.67;;;6.47;;
28551;SDS011;15752;49.560;8.708;2023-01-15T07:52:48;6.73;;;4.63;;
28551;SDS011;15752;49.560;8.708;2023-01-15T07:55:18;5.23;;;3.70;;
28551;SDS011;15752;49.560;8.708;2023-01-15T07:57:47;4.90;;;3.80;;
28551;SDS011;15752;49.560;8.708;2023-01-15T08:00:18;4.80;;;3.00;;
28551;SDS011;15752;49.560;8.708;2023-01-15T08:02:50;2.90;;;2.37;;
28551;SDS011;15752;49.560;8.708;2023-01-15T08:05:20;2.60;;;2.03;;
28551;SDS011;15752;49.560;8.708;2023-01-15T08:07:48;2.43;;;1.40;;
28551;SDS011;15752;49.560;8.708;2023-01-15T08:10:17;2.33;;;1.90;;
28551;SDS011;15752;49.560;8.708;2023-01-15T08:12:47;3.33;;;2.37;;
28551;SDS011;15752;49.560;8.708;2023-01-15T08:15:37;2.67;;;2.07;;
28551;SDS011;15752;49.560;8.708;2023-01-15T08:18:09;3.47;;;2.80;;
28551;SDS011;15752;49.560;8.708;2023-01-15T08:20:39;2.70;;;1.80;;
28551;SDS011;15752;49.560;8.708;2023-01-15T08:23:07;2.00;;;1.80;;
28551;SDS011;15752;49.560;8.708;2023-01-15T08:25:36;2.93;;;2.10;;
28551;SDS011;15752;49.560;8.708;2023-01-15T08:28:04;2.33;;;1.80;;
28551;SDS011;15752;49.560;8.708;2023-01-15T08:30:32;2.23;;;1.83;;
28551;SDS011;15752;49.560;8.708;2023-01-15T08:33:01;2.13;;;1.60;;
28551;SDS011;15752;49.560;8.708;2023-01-15T08:35:29;1.67;;;1.30;;
28551;SDS011;15752;49.560;8.708;2023-01-15T08:38:03;1.40;;;1.27;;
28551;SDS011;15752;49.560;8.708;2023-01-15T08:40:32;4.57;;;2.53;;
28551;SDS011;15752;49.560;8.708;2023-01-15T08:43:01;7.80;;;4.47;;
28551;SDS011;15752;49.560;8.708;2023-01-15T08:45:30;3.97;;;2.50;;
28551;SDS011;15752;49.560;8.708;2023-01-15T08:47:58;3.70;;;2.70;;
28551;SDS011;15752;49.560;8.708;2023-01-15T08:50:26;2.93;;;1.87;;
28551;SDS011;15752;49.560;8.708;2023-01-15T08:52:55;2.10;;;1.40;;
28551;SDS011;15752;49.560;8.708;2023-01-15T08:55:24;2.17;;;1.20;;
28551;SDS011;15752;49.560;8.708;2023-01-15T08:57:53;1.90;;;1.47;;
28551;SDS011;15752;49.560;8.708;2023-01-15T09:00:21;2.23;;;1.77;;
28551;SDS011;15752;49.560;8.708;2023-01-15T09:02:50;3.10;;;1.90;;
28551;SDS011;15752;49.560;8.708;2023-01-15T09:05:18;3.97;;;2.47;;
28551;SDS011;15752;49.560;8.708;2023-01-15T09:07:47;3.60;;;2.13;;
28551;SDS011;15752;49.560;8.708;2023-01-15T09:10:15;2.50;;;1.33;;
28551;SDS011;15752;49.560;8.708;2023-01-15T09:12:45;2.17;;;1.30;;
28551;SDS011;15752;49.560;8.708;2023-01-15T09:15:14;3.37;;;2.23;;
28551;SDS011;15752;49.560;8.708;2023-01-15T09:17:43;6.80;;;3.83;;
28551;SDS011;15752;49.560;8.708;2023-01-15T09:20:12;4.93;;;2.80;;
28551;SDS011;15752;49.560;8.708;2023-01-15T09:22:40;5.70;;;3.33;;
28551;SDS011;15752;49.560;8.708;2023-01-15T09:25:09;4.13;;;2.43;;
28551;SDS011;15752;49.560;8.708;2023-01-15T09:27:38;2.23;;;1.63;;
28551;SDS011;15752;49.560;8.708;2023-01-15T09:30:08;1.90;;;1.50;;
28551;SDS011;15752;49.560;8.708;2023-01-15T09:32:41;3.50;;;2.00;;
28551;SDS011;15752;49.560;8.708;2023-01-15T09:35:09;2.20;;;2.00;;
28551;SDS011;15752;49.560;8.708;2023-01-15T09:37:38;3.47;;;1.97;;
28551;SDS011;15752;49.560;8.708;2023-01-15T09:40:07;1.90;;;1.50;;
28551;SDS011;15752;49.560;8.708;2023-01-15T09:42:49;1.43;;;0.80;;
28551;SDS011;15752;49.560;8.708;2023-01-15T09:45:25;1.30;;;1.20;;
28551;SDS011;15752;49.560;8.708;2023-01-15T09:48:00;2.20;;;1.03;;
28551;SDS011;15752;49.560;8.708;2023-01-15T09:50:47;1.27;;;1.10;;
28551;SDS011;15752;49.560;8.708;2023-01-15T09:53:32;1.73;;;1.10;;
28551;SDS011;15752;49.560;8.708;2023-01-15T09:56:15;1.77;;;1.00;;
28551;SDS011;15752;49.560;8.708;2023-01-15T09:58:48;3.73;;;2.00;;
28551;SDS011;15752;49.560;8.708;2023-01-15T10:01:22;1.17;;;1.03;;
28551;SDS011;15752;49.560;8.708;2023-01-15T10:03:56;2.17;;;1.10;;
28551;SDS011;15752;49.560;8.708;2023-01-15T10:06:31;4.23;;;1.73;;
28551;SDS011;15752;49.560;8.708;2023-01-15T10:09:08;1.57;;;1.10;;
28551;SDS011;15752;49.560;8.708;2023-01-15T10:11:42;3.27;;;1.90;;
28551;SDS011;15752;49.560;8.708;2023-01-15T10:14:33;3.20;;;1.80;;
28551;SDS011;15752;49.560;8.708;2023-01-15T10:17:17;2.07;;;1.00;;
28551;SDS011;15752;49.560;8.708;2023-01-15T10:19:51;1.80;;;1.17;;
28551;SDS011;15752;49.560;8.708;2023-01-15T10:22:26;2.53;;;1.17;;
28551;SDS011;15752;49.560;8.708;2023-01-15T10:25:15;1.63;;;0.60;;
28551;SDS011;15752;49.560;8.708;2023-01-15T10:27:49;2.00;;;1.10;;
28551;SDS011;15752;49.560;8.708;2023-01-15T10:30:21;3.77;;;2.20;;
28551;SDS011;15752;49.560;8.708;2023-01-15T10:33:05;6.07;;;4.37;;
28551;SDS011;15752;49.560;8.708;2023-01-15T10:35:56;2.87;;;2.10;;
28551;SDS011;15752;49.560;8.708;2023-01-15T10:38:29;2.67;;;1.70;;
28551;SDS011;15752;49.560;8.708;2023-01-15T10:41:09;1.40;;;0.90;;
28551;SDS011;15752;49.560;8.708;2023-01-15T10:43:50;1.10;;;1.00;;
28551;SDS011;15752;49.560;8.708;2023-01-15T10:46:23;1.57;;;0.93;;
28551;SDS011;15752;49.560;8.708;2023-01-15T10:49:01;2.10;;;1.37;;
28551;SDS011;15752;49.560;8.708;2023-01-15T10:51:34;0.97;;;0.67;;
28551;SDS011;15752;49.560;8.708;2023-01-15T10:54:11;2.40;;;0.90;;
28551;SDS011;15752;49.560;8.708;2023-01-15T10:56:50;2.20;;;1.20;;
28551;SDS011;15752;49.560;8.708;2023-01-15T10:59:32;3.00;;;1.63;;
28551;SDS011;15752;49.560;8.708;2023-01-15T11:02:18;2.97;;;1.40;;
28551;SDS011;15752;49.560;8.708;2023-01-15T11:04:54;1.00;;;0.90;;
28551;SDS011;15752;49.560;8.708;2023-01-15T11:07:23;2.23;;;1.13;;
28551;SDS011;15752;49.560;8.708;2023-01-15T11:10:02;2.10;;;1.30;;
28551;SDS011;15752;49.560;8.708;2023-01-15T11:12:34;1.07;;;0.97;;
28551;SDS011;15752;49.560;8.708;2023-01-15T11:15:22;0.93;;;0.70;;
28551;SDS011;15752;49.560;8.708;2023-01-15T11:18:11;1.67;;;1.03;;
28551;SDS011;15752;49.560;8.708;2023-01-15T11:21:08;1.57;;;0.97;;
28551;SDS011;15752;49.560;8.708;2023-01-15T11:23:39;2.10;;;0.90;;
28551;SDS011;15752;49.560;8.708;2023-01-15T11:26:08;1.80;;;0.90;;
28551;SDS011;15752;49.560;8.708;2023-01-15T11:28:45;1.20;;;0.80;;
28551;SDS011;15752;49.560;8.708;2023-01-15T11:31:14;1.60;;;1.10;;
28551;SDS011;15752;49.560;8.708;2023-01-15T11:33:44;2.37;;;1.50;;
28551;SDS011;15752;49.560;8.708;2023-01-15T11:36:26;2.23;;;1.53;;
28551;SDS011;15752;49.560;8.708;2023-01-15T11:38:56;1.43;;;1.03;;
28551;SDS011;15752;49.560;8.708;2023-01-15T11:41:27;2.70;;;1.60;;
28551;SDS011;15752;49.560;8.708;2023-01-15T11:44:18;2.37;;;1.50;;
28551;SDS011;15752;49.560;8.708;2023-01-15T11:47:08;2.60;;;1.40;;
28551;SDS011;15752;49.560;8.708;2023-01-15T11:49:55;2.37;;;1.40;;
28551;SDS011;15752;49.560;8.708;2023-01-15T11:52:44;3.23;;;1.80;;
28551;SDS011;15752;49.560;8.708;2023-01-15T11:55:17;2.07;;;0.97;;
28551;SDS011;15752;49.560;8.708;2023-01-15T11:57:48;1.97;;;1.17;;
28551;SDS011;15752;49.560;8.708;2023-01-15T12:00:21;2.80;;;1.97;;
28551;SDS011;15752;49.560;8.708;2023-01-15T12:02:52;2.93;;;2.30;;
28551;SDS011;15752;49.560;8.708;2023-01-15T12:05:27;5.83;;;3.50;;
28551;SDS011;15752;49.560;8.708;2023-01-15T12:08:01;5.33;;;4.30;;
28551;SDS011;15752;49.560;8.708;2023-01-15T12:10:42;5.00;;;2.80;;
28551;SDS011;15752;49.560;8.708;2023-01-15T12:13:52;4.03;;;3.27;;
28551;SDS011;15752;49.560;8.708;2023-01-15T12:16:35;4.60;;;3.03;;
28551;SDS011;15752;49.560;8.708;2023-01-15T12:19:15;4.30;;;3.83;;
28551;SDS011;15752;49.560;8.708;2023-01-15T12:21:58;6.20;;;5.40;;
28551;SDS011;15752;49.560;8.708;2023-01-15T12:24:45;6.03;;;3.70;;
28551;SDS011;15752;49.560;8.708;2023-01-15T12:27:34;11.77;;;7.97;;
28551;SDS011;15752;49.560;8.708;2023-01-15T12:30:20;5.50;;;3.93;;
28551;SDS011;15752;49.560;8.708;2023-01-15T12:33:08;6.03;;;4.10;;
28551;SDS011;15752;49.560;8.708;2023-01-15T12:35:52;5.43;;;3.67;;
28551;SDS011;15752;49.560;8.708;2023-01-15T12:38:34;6.57;;;3.53;;
28551;SDS011;15752;49.560;8.708;2023-01-15T12:41:16;5.47;;;3.17;;
28551;SDS011;15752;49.560;8.708;2023-01-15T12:43:51;2.20;;;1.90;;
28551;SDS011;15752;49.560;8.708;2023-01-15T12:46:41;2.50;;;1.90;;
28551;SDS011;15752;49.560;8.708;2023-01-15T12:49:15;2.40;;;2.20;;
28551;SDS011;15752;49.560;8.708;2023-01-15T12:51:59;1.20;;;1.07;;
28551;SDS011;15752;49.560;8.708;2023-01-15T12:54:33;1.40;;;1.03;;
28551;SDS011;15752;49.560;8.708;2023-01-15T12:57:12;2.20;;;1.20;;
28551;SDS011;15752;49.560;8.708;2023-01-15T12:59:46;0.80;;;0.80;;
28551;SDS011;15752;49.560;8.708;2023-01-15T13:02:22;1.23;;;0.70;;
28551;SDS011;15752;49.560;8.708;2023-01-15T13:05:07;1.13;;;1.00;;
28551;SDS011;15752;49.560;8.708;2023-01-15T13:07:44;2.00;;;1.23;;
28551;SDS011;15752;49.560;8.708;2023-01-15T13:10:20;1.43;;;0.90;;
28551;SDS011;15752;49.560;8.708;2023-01-15T13:12:53;1.60;;;1.10;;
28551;SDS011;15752;49.560;8.708;2023-01-15T13:15:27;2.83;;;1.20;;
28551;SDS011;15752;49.560;8.708;2023-01-15T13:18:06;0.87;;;0.77;;
28551;SDS011;15752;49.560;8.708;2023-01-15T13:20:45;3.77;;;1.27;;
28551;SDS011;15752;49.560;8.708;2023-01-15T13:23:20;3.03;;;0.93;;
28551;SDS011;15752;49.560;8.708;2023-01-15T13:26:14;3.07;;;1.87;;
28551;SDS011;15752;49.560;8.708;2023-01-15T13:29:03;2.27;;;0.90;;
28551;SDS011;15752;49.560;8.708;2023-01-15T13:31:42;1.83;;;1.30;;
28551;SDS011;15752;49.560;8.708;2023-01-15T13:34:25;1.50;;;1.00;;
28551;SDS011;15752;49.560;8.708;2023-01-15T13:36:58;2.97;;;2.17;;
28551;SDS011;15752;49.560;8.708;2023-01-15T13:39:37;3.57;;;1.67;;
28551;SDS011;15752;49.560;8.708;2023-01-15T13:42:14;4.67;;;2.10;;
28551;SDS011;15752;49.560;8.708;2023-01-15T13:45:01;2.53;;;1.70;;
28551;SDS011;15752;49.560;8.708;2023-01-15T13:47:52;3.40;;;1.33;;
28551;SDS011;15752;49.560;8.708;2023-01-15T13:50:27;3.93;;;1.83;;
28551;SDS011;15752;49.560;8.708;2023-01-15T13:55:52;1.67;;;0.90;;
28551;SDS011;15752;49.560;8.708;2023-01-15T13:58:24;2.73;;;1.30;;
28551;SDS011;15752;49.560;8.708;2023-01-15T14:01:06;3.60;;;1.30;;
28551;SDS011;15752;49.560;8.708;2023-01-15T14:03:59;3.40;;;1.53;;
28551;SDS011;15752;49.560;8.708;2023-01-15T14:06:35;4.27;;;2.57;;
28551;SDS011;15752;49.560;8.708;2023-01-15T14:09:09;3.30;;;2.70;;
28551;SDS011;15752;49.560;8.708;2023-01-15T14:11:41;3.13;;;2.33;;
28551;SDS011;15752;49.560;8.708;2023-01-15T14:14:36;3.73;;;1.93;;
28551;SDS011;15752;49.560;8.708;2023-01-15T14:20:34;2.47;;;1.30;;
28551;SDS011;15752;49.560;8.708;2023-01-15T14:23:27;2.40;;;1.60;;
28551;SDS011;15752;49.560;8.708;2023-01-15T14:26:19;3.90;;;1.90;;
28551;SDS011;15752;49.560;8.708;2023-01-15T14:29:05;3.50;;;1.40;;
28551;SDS011;15752;49.560;8.708;2023-01-15T14:32:02;3.97;;;1.27;;
28551;SDS011;15752;49.560;8.708;2023-01-15T14:34:36;2.23;;;1.20;;
28551;SDS011;15752;49.560;8.708;2023-01-15T14:37:06;6.13;;;1.80;;
28551;SDS011;15752;49.560;8.708;2023-01-15T14:39:51;2.40;;;1.27;;
28551;SDS011;15752;49.560;8.708;2023-01-15T14:42:24;4.90;;;1.20;;
28551;SDS011;15752;49.560;8.708;2023-01-15T14:45:18;3.77;;;1.20;;
28551;SDS011;15752;49.560;8.708;2023-01-15T14:47:53;3.33;;;0.93;;
28551;SDS011;15752;49.560;8.708;2023-01-15T14:50:29;1.17;;;0.70;;
28551;SDS011;15752;49.560;8.708;2023-01-15T14:53:17;3.40;;;1.00;;
28551;SDS011;15752;49.560;8.708;2023-01-15T14:56:00;1.90;;;1.10;;
28551;SDS011;15752;49.560;8.708;2023-01-15T14:58:42;4.10;;;1.13;;
28551;SDS011;15752;49.560;8.708;2023-01-15T15:01:21;3.63;;;0.90;;
28551;SDS011;15752;49.560;8.708;2023-01-15T15:04:00;3.40;;;1.20;;
28551;SDS011;15752;49.560;8.708;2023-01-15T15:06:44;1.40;;;0.80;;
28551;SDS011;15752;49.560;8.708;2023-01-15T15:09:20;1.10;;;0.93;;
28551;SDS011;15752;49.560;8.708;2023-01-15T15:11:57;4.13;;;1.20;;
28551;SDS011;15752;49.560;8.708;2023-01-15T15:14:49;2.23;;;1.20;;
28551;SDS011;15752;49.560;8.708;2023-01-15T15:17:29;4.00;;;1.40;;
28551;SDS011;15752;49.560;8.708;2023-01-15T15:20:17;4.30;;;1.60;;
28551;SDS011;15752;49.560;8.708;2023-01-15T15:22:57;4.27;;;1.73;;
28551;SDS011;15752;49.560;8.708;2023-01-15T15:25:32;13.33;;;4.37;;
28551;SDS011;15752;49.560;8.708;2023-01-15T15:28:05;5.50;;;2.27;;
28551;SDS011;15752;49.560;8.708;2023-01-15T15:30:39;4.53;;;1.70;;
28551;SDS011;15752;49.560;8.708;2023-01-15T15:33:14;6.10;;;1.67;;
28551;SDS011;15752;49.560;8.708;2023-01-15T15:35:45;4.37;;;2.13;;
28551;SDS011;15752;49.560;8.708;2023-01-15T15:38:19;3.43;;;1.00;;
28551;SDS011;15752;49.560;8.708;2023-01-15T15:40:50;3.73;;;1.67;;
28551;SDS011;15752;49.560;8.708;2023-01-15T15:43:22;3.63;;;2.73;;
28551;SDS011;15752;49.560;8.708;2023-01-15T15:46:24;2.77;;;1.70;;